sensor_id;sensor_type;location;lat;lon;timestamp;P1;durP1;ratioP1;P2;durP2;ratioP2
10260;SDS011;5175;42.606;23.388;2022-10-17T00:02:05;8.87;;;7.90;;
10260;SDS011;5175;42.606;23.388;2022-10-17T00:04:32;9.90;;;8.17;;
10260;SDS011;5175;42.606;23.388;2022-10-17T00:06:58;9.43;;;8.10;;
10260;SDS011;5175;42.606;23.388;2022-10-17T00:09:26;10.23;;;8.27;;
10260;SDS011;5175;42.606;23.388;2022-10-17T00:11:53;8.77;;;7.60;;
10260;SDS011;5175;42.606;23.388;2022-10-17T00:14:20;9.23;;;7.20;;
10260;SDS011;5175;42.606;23.388;2022-10-17T00:16:47;7.10;;;5.97;;
10260;SDS011;5175;42.606;23.388;2022-10-17T00:19:13;7.33;;;6.50;;
10260;SDS011;5175;42.606;23.388;2022-10-17T00:21:40;6.67;;;5.93;;
10260;SDS011;5175;42.606;23.388;2022-10-17T00:24:07;7.27;;;6.00;;
10260;SDS011;5175;42.606;23.388;2022-10-17T00:26:35;10.47;;;6.20;;
10260;SDS011;5175;42.606;23.388;2022-10-17T00:29:01;7.33;;;6.27;;
10260;SDS011;5175;42.606;23.388;2022-10-17T00:31:28;7.90;;;6.20;;
10260;SDS011;5175;42.606;23.388;2022-10-17T00:33:55;7.53;;;6.73;;
10260;SDS011;5175;42.606;23.388;2022-10-17T00:36:22;6.73;;;6.03;;
10260;SDS011;5175;42.606;23.388;2022-10-17T00:38:51;7.87;;;6.60;;
10260;SDS011;5175;42.606;23.388;2022-10-17T00:41:20;8.47;;;7.10;;
10260;SDS011;5175;42.606;23.388;2022-10-17T00:43:51;6.90;;;6.23;;
10260;SDS011;5175;42.606;23.388;2022-10-17T00:46:20;7.13;;;6.43;;
10260;SDS011;5175;42.606;23.388;2022-10-17T00:48:49;7.13;;;6.43;;
10260;SDS011;5175;42.606;23.388;2022-10-17T00:51:18;7.00;;;6.30;;
10260;SDS011;5175;42.606;23.388;2022-10-17T00:53:48;7.83;;;6.67;;
10260;SDS011;5175;42.606;23.388;2022-10-17T00:56:15;7.53;;;6.73;;
10260;SDS011;5175;42.606;23.388;2022-10-17T00:58:44;8.20;;;6.83;;
10260;SDS011;5175;42.606;23.388;2022-10-17T01:01:13;7.67;;;6.87;;
10260;SDS011;5175;42.606;23.388;2022-10-17T01:03:40;9.20;;;6.47;;
10260;SDS011;5175;42.606;23.388;2022-10-17T01:06:07;7.90;;;6.77;;
10260;SDS011;5175;42.606;23.388;2022-10-17T01:08:33;8.37;;;6.80;;
10260;SDS011;5175;42.606;23.388;2022-10-17T01:11:02;8.03;;;6.70;;
10260;SDS011;5175;42.606;23.388;2022-10-17T01:13:40;7.70;;;6.90;;
10260;SDS011;5175;42.606;23.388;2022-10-17T01:16:15;7.73;;;5.93;;
10260;SDS011;5175;42.606;23.388;2022-10-17T01:18:50;7.70;;;6.23;;
10260;SDS011;5175;42.606;23.388;2022-10-17T01:21:29;7.30;;;6.60;;
10260;SDS011;5175;42.606;23.388;2022-10-17T01:24:05;8.67;;;6.70;;
10260;SDS011;5175;42.606;23.388;2022-10-17T01:27:16;8.97;;;6.10;;
10260;SDS011;5175;42.606;23.388;2022-10-17T01:30:09;8.13;;;6.67;;
10260;SDS011;5175;42.606;23.388;2022-10-17T01:33:14;9.20;;;6.27;;
10260;SDS011;5175;42.606;23.388;2022-10-17T01:35:47;7.17;;;6.43;;
10260;SDS011;5175;42.606;23.388;2022-10-17T01:38:20;7.63;;;6.83;;
10260;SDS011;5175;42.606;23.388;2022-10-17T01:40:51;6.93;;;6.20;;
10260;SDS011;5175;42.606;23.388;2022-10-17T01:43:27;8.20;;;6.47;;
10260;SDS011;5175;42.606;23.388;2022-10-17T01:46:00;7.80;;;6.93;;
10260;SDS011;5175;42.606;23.388;2022-10-17T01:48:35;7.33;;;6.20;;
10260;SDS011;5175;42.606;23.388;2022-10-17T01:51:05;7.87;;;7.07;;
10260;SDS011;5175;42.606;23.388;2022-10-17T01:53:35;6.47;;;5.87;;
10260;SDS011;5175;42.606;23.388;2022-10-17T01:56:06;7.20;;;6.50;;
10260;SDS011;5175;42.606;23.388;2022-10-17T01:58:37;7.60;;;6.87;;
10260;SDS011;5175;42.606;23.388;2022-10-17T02:01:07;7.40;;;6.67;;
10260;SDS011;5175;42.606;23.388;2022-10-17T02:03:39;7.40;;;6.47;;
10260;SDS011;5175;42.606;23.388;2022-10-17T02:06:08;8.30;;;7.43;;
10260;SDS011;5175;42.606;23.388;2022-10-17T02:08:39;8.57;;;7.57;;
10260;SDS011;5175;42.606;23.388;2022-10-17T02:11:08;7.40;;;6.60;;
10260;SDS011;5175;42.606;23.388;2022-10-17T02:13:43;8.27;;;6.20;;
10260;SDS011;5175;42.606;23.388;2022-10-17T02:16:20;8.53;;;7.27;;
10260;SDS011;5175;42.606;23.388;2022-10-17T02:19:13;8.83;;;7.03;;
10260;SDS011;5175;42.606;23.388;2022-10-17T02:21:59;6.80;;;6.10;;
10260;SDS011;5175;42.606;23.388;2022-10-17T02:24:34;6.30;;;5.70;;
10260;SDS011;5175;42.606;23.388;2022-10-17T02:27:11;6.07;;;5.47;;
10260;SDS011;5175;42.606;23.388;2022-10-17T02:29:44;8.33;;;6.10;;
10260;SDS011;5175;42.606;23.388;2022-10-17T02:32:13;7.27;;;6.57;;
10260;SDS011;5175;42.606;23.388;2022-10-17T02:34:46;8.13;;;6.70;;
10260;SDS011;5175;42.606;23.388;2022-10-17T02:37:17;9.30;;;6.57;;
10260;SDS011;5175;42.606;23.388;2022-10-17T02:39:47;6.70;;;6.00;;
10260;SDS011;5175;42.606;23.388;2022-10-17T02:42:16;7.47;;;6.30;;
10260;SDS011;5175;42.606;23.388;2022-10-17T02:44:45;9.23;;;6.47;;
10260;SDS011;5175;42.606;23.388;2022-10-17T02:47:15;9.10;;;6.90;;
10260;SDS011;5175;42.606;23.388;2022-10-17T02:49:49;7.33;;;6.30;;
10260;SDS011;5175;42.606;23.388;2022-10-17T02:52:19;7.20;;;6.50;;
10260;SDS011;5175;42.606;23.388;2022-10-17T02:54:52;9.57;;;6.93;;
10260;SDS011;5175;42.606;23.388;2022-10-17T02:57:24;8.67;;;6.73;;
10260;SDS011;5175;42.606;23.388;2022-10-17T02:59:54;9.20;;;7.07;;
10260;SDS011;5175;42.606;23.388;2022-10-17T03:02:23;9.07;;;6.87;;
10260;SDS011;5175;42.606;23.388;2022-10-17T03:04:51;9.30;;;7.07;;
10260;SDS011;5175;42.606;23.388;2022-10-17T03:07:18;8.93;;;7.60;;
10260;SDS011;5175;42.606;23.388;2022-10-17T03:09:45;8.00;;;7.20;;
10260;SDS011;5175;42.606;23.388;2022-10-17T03:12:12;8.77;;;7.87;;
10260;SDS011;5175;42.606;23.388;2022-10-17T03:14:38;10.33;;;7.67;;
10260;SDS011;5175;42.606;23.388;2022-10-17T03:17:05;8.20;;;7.40;;
10260;SDS011;5175;42.606;23.388;2022-10-17T03:19:32;8.47;;;7.37;;
10260;SDS011;5175;42.606;23.388;2022-10-17T03:22:00;9.43;;;8.07;;
10260;SDS011;5175;42.606;23.388;2022-10-17T03:24:26;8.60;;;7.67;;
10260;SDS011;5175;42.606;23.388;2022-10-17T03:26:53;9.27;;;7.93;;
10260;SDS011;5175;42.606;23.388;2022-10-17T03:29:20;9.77;;;8.63;;
10260;SDS011;5175;42.606;23.388;2022-10-17T03:31:47;9.03;;;8.13;;
10260;SDS011;5175;42.606;23.388;2022-10-17T03:34:14;9.23;;;8.30;;
10260;SDS011;5175;42.606;23.388;2022-10-17T03:36:43;9.20;;;8.30;;
10260;SDS011;5175;42.606;23.388;2022-10-17T03:39:11;9.33;;;8.40;;
10260;SDS011;5175;42.606;23.388;2022-10-17T03:41:38;9.83;;;8.23;;
10260;SDS011;5175;42.606;23.388;2022-10-17T03:44:04;11.60;;;8.33;;
10260;SDS011;5175;42.606;23.388;2022-10-17T03:46:31;9.93;;;8.60;;
10260;SDS011;5175;42.606;23.388;2022-10-17T03:48:58;12.63;;;8.93;;
10260;SDS011;5175;42.606;23.388;2022-10-17T03:51:25;9.23;;;8.23;;
10260;SDS011;5175;42.606;23.388;2022-10-17T03:53:52;8.73;;;7.67;;
10260;SDS011;5175;42.606;23.388;2022-10-17T03:56:21;8.80;;;7.50;;
10260;SDS011;5175;42.606;23.388;2022-10-17T03:58:49;10.33;;;7.30;;
10260;SDS011;5175;42.606;23.388;2022-10-17T04:01:16;7.77;;;6.97;;
10260;SDS011;5175;42.606;23.388;2022-10-17T04:03:47;7.70;;;6.93;;
10260;SDS011;5175;42.606;23.388;2022-10-17T04:06:15;7.83;;;6.30;;
10260;SDS011;5175;42.606;23.388;2022-10-17T04:08:42;8.07;;;6.50;;
10260;SDS011;5175;42.606;23.388;2022-10-17T04:11:09;8.13;;;6.40;;
10260;SDS011;5175;42.606;23.388;2022-10-17T04:13:41;6.83;;;6.07;;
10260;SDS011;5175;42.606;23.388;2022-10-17T04:16:09;9.50;;;7.07;;
10260;SDS011;5175;42.606;23.388;2022-10-17T04:18:38;7.73;;;6.93;;
10260;SDS011;5175;42.606;23.388;2022-10-17T04:21:05;9.97;;;7.33;;
10260;SDS011;5175;42.606;23.388;2022-10-17T04:23:33;8.70;;;7.53;;
10260;SDS011;5175;42.606;23.388;2022-10-17T04:26:00;8.37;;;7.13;;
10260;SDS011;5175;42.606;23.388;2022-10-17T04:28:29;8.83;;;7.70;;
10260;SDS011;5175;42.606;23.388;2022-10-17T04:30:58;9.30;;;6.77;;
10260;SDS011;5175;42.606;23.388;2022-10-17T04:33:26;10.23;;;7.07;;
10260;SDS011;5175;42.606;23.388;2022-10-17T04:35:56;8.50;;;6.90;;
10260;SDS011;5175;42.606;23.388;2022-10-17T04:38:23;7.60;;;6.23;;
10260;SDS011;5175;42.606;23.388;2022-10-17T04:40:50;9.17;;;7.70;;
10260;SDS011;5175;42.606;23.388;2022-10-17T04:43:17;9.33;;;7.80;;
10260;SDS011;5175;42.606;23.388;2022-10-17T04:45:44;11.90;;;8.20;;
10260;SDS011;5175;42.606;23.388;2022-10-17T04:48:12;10.63;;;8.33;;
10260;SDS011;5175;42.606;23.388;2022-10-17T04:50:39;10.37;;;8.23;;
10260;SDS011;5175;42.606;23.388;2022-10-17T04:53:05;10.23;;;7.67;;
10260;SDS011;5175;42.606;23.388;2022-10-17T04:55:35;8.80;;;7.47;;
10260;SDS011;5175;42.606;23.388;2022-10-17T04:58:03;8.73;;;7.70;;
10260;SDS011;5175;42.606;23.388;2022-10-17T05:00:29;10.23;;;7.60;;
10260;SDS011;5175;42.606;23.388;2022-10-17T05:02:56;11.53;;;8.40;;
10260;SDS011;5175;42.606;23.388;2022-10-17T05:05:24;22.13;;;11.30;;
10260;SDS011;5175;42.606;23.388;2022-10-17T05:07:51;21.53;;;13.70;;
10260;SDS011;5175;42.606;23.388;2022-10-17T05:10:18;18.53;;;12.40;;
10260;SDS011;5175;42.606;23.388;2022-10-17T05:12:45;18.67;;;10.80;;
10260;SDS011;5175;42.606;23.388;2022-10-17T05:15:12;11.27;;;9.07;;
10260;SDS011;5175;42.606;23.388;2022-10-17T05:17:39;13.90;;;8.90;;
10260;SDS011;5175;42.606;23.388;2022-10-17T05:20:06;13.40;;;10.17;;
10260;SDS011;5175;42.606;23.388;2022-10-17T05:22:36;13.10;;;9.80;;
10260;SDS011;5175;42.606;23.388;2022-10-17T05:25:03;12.60;;;9.27;;
10260;SDS011;5175;42.606;23.388;2022-10-17T05:27:31;9.57;;;8.57;;
10260;SDS011;5175;42.606;23.388;2022-10-17T05:29:58;12.47;;;10.13;;
10260;SDS011;5175;42.606;23.388;2022-10-17T05:32:25;9.97;;;8.83;;
10260;SDS011;5175;42.606;23.388;2022-10-17T05:34:51;12.77;;;9.63;;
10260;SDS011;5175;42.606;23.388;2022-10-17T05:37:18;9.67;;;8.67;;
10260;SDS011;5175;42.606;23.388;2022-10-17T05:39:46;9.00;;;8.03;;
10260;SDS011;5175;42.606;23.388;2022-10-17T05:42:13;10.13;;;8.67;;
10260;SDS011;5175;42.606;23.388;2022-10-17T05:44:40;9.77;;;8.43;;
10260;SDS011;5175;42.606;23.388;2022-10-17T05:47:06;9.90;;;8.90;;
10260;SDS011;5175;42.606;23.388;2022-10-17T05:49:33;12.17;;;8.37;;
10260;SDS011;5175;42.606;23.388;2022-10-17T05:52:00;12.20;;;8.83;;
10260;SDS011;5175;42.606;23.388;2022-10-17T05:54:27;10.00;;;8.43;;
10260;SDS011;5175;42.606;23.388;2022-10-17T05:56:55;10.57;;;7.67;;
10260;SDS011;5175;42.606;23.388;2022-10-17T05:59:23;9.47;;;8.20;;
10260;SDS011;5175;42.606;23.388;2022-10-17T06:01:50;9.70;;;8.23;;
10260;SDS011;5175;42.606;23.388;2022-10-17T06:04:18;9.37;;;7.80;;
10260;SDS011;5175;42.606;23.388;2022-10-17T06:06:44;11.33;;;8.40;;
10260;SDS011;5175;42.606;23.388;2022-10-17T06:09:11;9.87;;;7.33;;
10260;SDS011;5175;42.606;23.388;2022-10-17T06:11:38;8.00;;;7.20;;
10260;SDS011;5175;42.606;23.388;2022-10-17T06:14:06;8.10;;;7.30;;
10260;SDS011;5175;42.606;23.388;2022-10-17T06:16:33;7.23;;;6.53;;
10260;SDS011;5175;42.606;23.388;2022-10-17T06:19:00;7.70;;;6.93;;
10260;SDS011;5175;42.606;23.388;2022-10-17T06:21:27;7.73;;;7.03;;
10260;SDS011;5175;42.606;23.388;2022-10-17T06:23:58;8.43;;;6.57;;
10260;SDS011;5175;42.606;23.388;2022-10-17T06:26:25;7.60;;;6.50;;
10260;SDS011;5175;42.606;23.388;2022-10-17T06:28:52;10.17;;;7.10;;
10260;SDS011;5175;42.606;23.388;2022-10-17T06:31:21;7.67;;;6.33;;
10260;SDS011;5175;42.606;23.388;2022-10-17T06:33:48;7.90;;;6.20;;
10260;SDS011;5175;42.606;23.388;2022-10-17T06:36:15;10.13;;;6.87;;
10260;SDS011;5175;42.606;23.388;2022-10-17T06:38:42;7.00;;;6.30;;
10260;SDS011;5175;42.606;23.388;2022-10-17T06:41:10;7.00;;;6.00;;
10260;SDS011;5175;42.606;23.388;2022-10-17T06:43:39;7.10;;;6.40;;
10260;SDS011;5175;42.606;23.388;2022-10-17T06:46:07;6.50;;;5.90;;
10260;SDS011;5175;42.606;23.388;2022-10-17T06:48:35;6.60;;;5.90;;
10260;SDS011;5175;42.606;23.388;2022-10-17T06:51:02;13.77;;;6.87;;
10260;SDS011;5175;42.606;23.388;2022-10-17T06:53:31;7.40;;;6.70;;
10260;SDS011;5175;42.606;23.388;2022-10-17T06:55:59;7.03;;;6.33;;
10260;SDS011;5175;42.606;23.388;2022-10-17T06:58:27;7.43;;;6.73;;
10260;SDS011;5175;42.606;23.388;2022-10-17T07:00:56;7.30;;;6.30;;
10260;SDS011;5175;42.606;23.388;2022-10-17T07:03:24;7.00;;;6.20;;
10260;SDS011;5175;42.606;23.388;2022-10-17T07:05:52;6.60;;;5.90;;
10260;SDS011;5175;42.606;23.388;2022-10-17T07:08:19;6.60;;;6.00;;
10260;SDS011;5175;42.606;23.388;2022-10-17T07:10:46;6.60;;;6.00;;
10260;SDS011;5175;42.606;23.388;2022-10-17T07:13:13;6.03;;;5.43;;
10260;SDS011;5175;42.606;23.388;2022-10-17T07:15:40;6.73;;;6.03;;
10260;SDS011;5175;42.606;23.388;2022-10-17T07:18:07;9.67;;;5.83;;
10260;SDS011;5175;42.606;23.388;2022-10-17T07:20:34;7.00;;;6.30;;
10260;SDS011;5175;42.606;23.388;2022-10-17T07:23:02;8.30;;;5.97;;
10260;SDS011;5175;42.606;23.388;2022-10-17T07:25:29;7.33;;;5.80;;
10260;SDS011;5175;42.606;23.388;2022-10-17T07:27:56;6.10;;;5.50;;
10260;SDS011;5175;42.606;23.388;2022-10-17T07:30:23;6.20;;;5.60;;
10260;SDS011;5175;42.606;23.388;2022-10-17T07:32:51;6.50;;;5.80;;
10260;SDS011;5175;42.606;23.388;2022-10-17T07:35:18;6.60;;;5.97;;
10260;SDS011;5175;42.606;23.388;2022-10-17T07:37:46;6.80;;;6.10;;
10260;SDS011;5175;42.606;23.388;2022-10-17T07:40:14;6.30;;;5.63;;
10260;SDS011;5175;42.606;23.388;2022-10-17T07:42:41;6.00;;;5.40;;
10260;SDS011;5175;42.606;23.388;2022-10-17T07:45:08;6.30;;;5.70;;
10260;SDS011;5175;42.606;23.388;2022-10-17T07:47:35;8.70;;;5.60;;
10260;SDS011;5175;42.606;23.388;2022-10-17T07:50:02;9.07;;;6.03;;
10260;SDS011;5175;42.606;23.388;2022-10-17T07:52:30;6.90;;;6.20;;
10260;SDS011;5175;42.606;23.388;2022-10-17T07:54:57;6.97;;;6.33;;
10260;SDS011;5175;42.606;23.388;2022-10-17T07:57:25;8.97;;;6.43;;
10260;SDS011;5175;42.606;23.388;2022-10-17T07:59:51;7.20;;;6.37;;
10260;SDS011;5175;42.606;23.388;2022-10-17T08:02:20;7.00;;;6.30;;
10260;SDS011;5175;42.606;23.388;2022-10-17T08:04:48;7.67;;;6.83;;
10260;SDS011;5175;42.606;23.388;2022-10-17T08:07:15;9.13;;;7.30;;
10260;SDS011;5175;42.606;23.388;2022-10-17T08:09:42;9.63;;;6.57;;
10260;SDS011;5175;42.606;23.388;2022-10-17T08:12:09;6.53;;;5.93;;
10260;SDS011;5175;42.606;23.388;2022-10-17T08:14:37;6.97;;;6.27;;
10260;SDS011;5175;42.606;23.388;2022-10-17T08:17:04;7.93;;;6.47;;
10260;SDS011;5175;42.606;23.388;2022-10-17T08:19:31;9.27;;;6.60;;
10260;SDS011;5175;42.606;23.388;2022-10-17T08:21:58;11.90;;;7.43;;
10260;SDS011;5175;42.606;23.388;2022-10-17T08:24:26;8.60;;;6.83;;
10260;SDS011;5175;42.606;23.388;2022-10-17T08:26:53;11.87;;;7.63;;
10260;SDS011;5175;42.606;23.388;2022-10-17T08:29:21;11.93;;;8.30;;
10260;SDS011;5175;42.606;23.388;2022-10-17T08:31:49;12.80;;;9.23;;
10260;SDS011;5175;42.606;23.388;2022-10-17T08:34:16;14.20;;;9.50;;
10260;SDS011;5175;42.606;23.388;2022-10-17T08:36:43;17.47;;;8.57;;
10260;SDS011;5175;42.606;23.388;2022-10-17T08:39:10;10.10;;;7.20;;
10260;SDS011;5175;42.606;23.388;2022-10-17T08:41:42;12.93;;;9.90;;
10260;SDS011;5175;42.606;23.388;2022-10-17T08:44:21;12.47;;;9.93;;
10260;SDS011;5175;42.606;23.388;2022-10-17T08:47:01;9.77;;;7.63;;
10260;SDS011;5175;42.606;23.388;2022-10-17T08:49:33;12.33;;;9.57;;
10260;SDS011;5175;42.606;23.388;2022-10-17T08:52:10;11.20;;;8.80;;
10260;SDS011;5175;42.606;23.388;2022-10-17T08:54:44;9.27;;;6.77;;
10260;SDS011;5175;42.606;23.388;2022-10-17T08:57:13;12.17;;;7.77;;
10260;SDS011;5175;42.606;23.388;2022-10-17T08:59:41;5.97;;;5.20;;
10260;SDS011;5175;42.606;23.388;2022-10-17T09:02:21;10.13;;;7.10;;
10260;SDS011;5175;42.606;23.388;2022-10-17T09:08:02;8.30;;;6.60;;
10260;SDS011;5175;42.606;23.388;2022-10-17T09:10:41;6.80;;;6.10;;
10260;SDS011;5175;42.606;23.388;2022-10-17T09:13:21;5.87;;;5.13;;
10260;SDS011;5175;42.606;23.388;2022-10-17T09:15:58;6.10;;;5.50;;
10260;SDS011;5175;42.606;23.388;2022-10-17T09:18:36;6.85;;;5.00;;
10260;SDS011;5175;42.606;23.388;2022-10-17T09:21:09;6.57;;;4.90;;
10260;SDS011;5175;42.606;23.388;2022-10-17T09:23:44;7.90;;;5.28;;
10260;SDS011;5175;42.606;23.388;2022-10-17T09:26:14;6.47;;;5.65;;
10260;SDS011;5175;42.606;23.388;2022-10-17T09:28:41;6.47;;;5.85;;
10260;SDS011;5175;42.606;23.388;2022-10-17T09:31:11;8.25;;;6.28;;
10260;SDS011;5175;42.606;23.388;2022-10-17T09:33:45;8.60;;;6.18;;
10260;SDS011;5175;42.606;23.388;2022-10-17T09:36:15;7.72;;;5.65;;
10260;SDS011;5175;42.606;23.388;2022-10-17T09:38:46;5.70;;;4.18;;
10260;SDS011;5175;42.606;23.388;2022-10-17T09:41:16;4.90;;;3.80;;
10260;SDS011;5175;42.606;23.388;2022-10-17T09:43:45;5.68;;;3.72;;
10260;SDS011;5175;42.606;23.388;2022-10-17T09:46:14;5.15;;;4.40;;
10260;SDS011;5175;42.606;23.388;2022-10-17T09:48:50;5.68;;;3.92;;
10260;SDS011;5175;42.606;23.388;2022-10-17T09:51:20;5.40;;;3.80;;
10260;SDS011;5175;42.606;23.388;2022-10-17T09:53:48;4.95;;;3.65;;
10260;SDS011;5175;42.606;23.388;2022-10-17T09:56:22;5.18;;;3.88;;
10260;SDS011;5175;42.606;23.388;2022-10-17T09:58:50;4.93;;;3.25;;
10260;SDS011;5175;42.606;23.388;2022-10-17T10:01:21;3.55;;;3.08;;
10260;SDS011;5175;42.606;23.388;2022-10-17T10:06:36;3.72;;;3.42;;
10260;SDS011;5175;42.606;23.388;2022-10-17T10:09:03;4.35;;;3.78;;
10260;SDS011;5175;42.606;23.388;2022-10-17T10:11:44;4.22;;;3.83;;
10260;SDS011;5175;42.606;23.388;2022-10-17T10:14:18;3.75;;;3.45;;
10260;SDS011;5175;42.606;23.388;2022-10-17T10:16:47;3.75;;;3.15;;
10260;SDS011;5175;42.606;23.388;2022-10-17T10:19:20;3.20;;;2.90;;
10260;SDS011;5175;42.606;23.388;2022-10-17T10:21:54;5.50;;;3.70;;
10260;SDS011;5175;42.606;23.388;2022-10-17T10:24:22;4.93;;;3.83;;
10260;SDS011;5175;42.606;23.388;2022-10-17T10:26:50;4.93;;;3.60;;
10260;SDS011;5175;42.606;23.388;2022-10-17T10:29:20;4.20;;;3.35;;
10260;SDS011;5175;42.606;23.388;2022-10-17T10:31:50;4.97;;;3.65;;
10260;SDS011;5175;42.606;23.388;2022-10-17T10:34:20;6.25;;;3.97;;
10260;SDS011;5175;42.606;23.388;2022-10-17T10:36:51;3.97;;;3.58;;
10260;SDS011;5175;42.606;23.388;2022-10-17T10:39:33;7.00;;;3.67;;
10260;SDS011;5175;42.606;23.388;2022-10-17T10:42:03;3.80;;;3.40;;
10260;SDS011;5175;42.606;23.388;2022-10-17T10:44:33;5.13;;;3.40;;
10260;SDS011;5175;42.606;23.388;2022-10-17T10:49:52;3.72;;;3.40;;
10260;SDS011;5175;42.606;23.388;2022-10-17T10:52:38;5.88;;;3.25;;
10260;SDS011;5175;42.606;23.388;2022-10-17T10:55:15;3.78;;;3.13;;
10260;SDS011;5175;42.606;23.388;2022-10-17T10:57:48;3.55;;;3.05;;
10260;SDS011;5175;42.606;23.388;2022-10-17T11:00:20;3.60;;;2.92;;
10260;SDS011;5175;42.606;23.388;2022-10-17T11:02:51;4.60;;;3.00;;
10260;SDS011;5175;42.606;23.388;2022-10-17T11:05:29;6.82;;;3.10;;
10260;SDS011;5175;42.606;23.388;2022-10-17T11:08:05;4.78;;;3.40;;
10260;SDS011;5175;42.606;23.388;2022-10-17T11:10:41;4.45;;;3.20;;
10260;SDS011;5175;42.606;23.388;2022-10-17T11:13:25;3.10;;;2.90;;
10260;SDS011;5175;42.606;23.388;2022-10-17T11:15:56;4.55;;;2.95;;
10260;SDS011;5175;42.606;23.388;2022-10-17T11:18:28;3.30;;;2.92;;
10260;SDS011;5175;42.606;23.388;2022-10-17T11:21:03;7.00;;;3.35;;
10260;SDS011;5175;42.606;23.388;2022-10-17T11:23:36;5.25;;;2.92;;
10260;SDS011;5175;42.606;23.388;2022-10-17T11:26:10;3.80;;;3.00;;
10260;SDS011;5175;42.606;23.388;2022-10-17T11:28:41;4.50;;;3.05;;
10260;SDS011;5175;42.606;23.388;2022-10-17T11:31:09;4.13;;;3.20;;
10260;SDS011;5175;42.606;23.388;2022-10-17T11:33:40;3.10;;;2.80;;
10260;SDS011;5175;42.606;23.388;2022-10-17T11:36:17;3.45;;;2.78;;
10260;SDS011;5175;42.606;23.388;2022-10-17T11:38:48;3.13;;;2.80;;
10260;SDS011;5175;42.606;23.388;2022-10-17T11:41:19;3.50;;;3.20;;
10260;SDS011;5175;42.606;23.388;2022-10-17T11:43:53;4.63;;;3.40;;
10260;SDS011;5175;42.606;23.388;2022-10-17T11:46:23;3.58;;;3.00;;
10260;SDS011;5175;42.606;23.388;2022-10-17T11:48:58;5.47;;;3.20;;
10260;SDS011;5175;42.606;23.388;2022-10-17T11:51:35;3.50;;;3.10;;
10260;SDS011;5175;42.606;23.388;2022-10-17T11:54:09;3.78;;;3.25;;
10260;SDS011;5175;42.606;23.388;2022-10-17T11:56:41;3.95;;;3.22;;
10260;SDS011;5175;42.606;23.388;2022-10-17T11:59:27;3.60;;;2.97;;
10260;SDS011;5175;42.606;23.388;2022-10-17T12:02:12;4.35;;;3.13;;
10260;SDS011;5175;42.606;23.388;2022-10-17T12:04:47;4.20;;;3.13;;
10260;SDS011;5175;42.606;23.388;2022-10-17T12:07:26;3.72;;;3.10;;
10260;SDS011;5175;42.606;23.388;2022-10-17T12:10:02;5.10;;;3.20;;
10260;SDS011;5175;42.606;23.388;2022-10-17T12:12:40;4.20;;;2.80;;
10260;SDS011;5175;42.606;23.388;2022-10-17T12:15:26;3.47;;;3.15;;
10260;SDS011;5175;42.606;23.388;2022-10-17T12:17:55;5.50;;;3.30;;
10260;SDS011;5175;42.606;23.388;2022-10-17T12:20:29;3.95;;;3.08;;
10260;SDS011;5175;42.606;23.388;2022-10-17T12:23:05;3.95;;;3.55;;
10260;SDS011;5175;42.606;23.388;2022-10-17T12:25:49;4.55;;;3.40;;
10260;SDS011;5175;42.606;23.388;2022-10-17T12:28:19;5.57;;;3.00;;
10260;SDS011;5175;42.606;23.388;2022-10-17T12:30:52;5.18;;;3.15;;
10260;SDS011;5175;42.606;23.388;2022-10-17T12:33:22;4.88;;;3.10;;
10260;SDS011;5175;42.606;23.388;2022-10-17T12:41:55;3.92;;;2.97;;
10260;SDS011;5175;42.606;23.388;2022-10-17T12:50:01;6.57;;;3.40;;
10260;SDS011;5175;42.606;23.388;2022-10-17T12:55:30;6.43;;;3.50;;
10260;SDS011;5175;42.606;23.388;2022-10-17T12:57:58;3.88;;;3.38;;
10260;SDS011;5175;42.606;23.388;2022-10-17T13:00:30;3.42;;;3.13;;
10260;SDS011;5175;42.606;23.388;2022-10-17T13:03:09;5.43;;;3.30;;
10260;SDS011;5175;42.606;23.388;2022-10-17T13:05:40;4.65;;;3.45;;
10260;SDS011;5175;42.606;23.388;2022-10-17T13:08:14;4.22;;;3.13;;
10260;SDS011;5175;42.606;23.388;2022-10-17T13:10:45;4.40;;;2.90;;
10260;SDS011;5175;42.606;23.388;2022-10-17T13:13:17;4.32;;;2.80;;
10260;SDS011;5175;42.606;23.388;2022-10-17T13:15:46;4.90;;;3.10;;
10260;SDS011;5175;42.606;23.388;2022-10-17T13:18:19;3.42;;;2.60;;
10260;SDS011;5175;42.606;23.388;2022-10-17T13:20:54;6.82;;;2.90;;
10260;SDS011;5175;42.606;23.388;2022-10-17T13:23:22;4.15;;;3.10;;
10260;SDS011;5175;42.606;23.388;2022-10-17T13:26:01;8.25;;;3.03;;
10260;SDS011;5175;42.606;23.388;2022-10-17T13:28:31;8.95;;;2.83;;
10260;SDS011;5175;42.606;23.388;2022-10-17T13:30:58;4.85;;;2.72;;
10260;SDS011;5175;42.606;23.388;2022-10-17T13:33:33;6.18;;;2.80;;
10260;SDS011;5175;42.606;23.388;2022-10-17T13:36:03;3.33;;;2.40;;
10260;SDS011;5175;42.606;23.388;2022-10-17T13:38:33;3.17;;;2.50;;
10260;SDS011;5175;42.606;23.388;2022-10-17T13:41:01;3.40;;;2.70;;
10260;SDS011;5175;42.606;23.388;2022-10-17T13:43:29;3.35;;;2.30;;
10260;SDS011;5175;42.606;23.388;2022-10-17T13:45:59;8.02;;;2.40;;
10260;SDS011;5175;42.606;23.388;2022-10-17T13:48:30;6.15;;;2.38;;
10260;SDS011;5175;42.606;23.388;2022-10-17T13:50:59;3.40;;;2.17;;
10260;SDS011;5175;42.606;23.388;2022-10-17T13:53:29;2.35;;;1.90;;
10260;SDS011;5175;42.606;23.388;2022-10-17T13:55:58;3.60;;;2.05;;
10260;SDS011;5175;42.606;23.388;2022-10-17T13:58:28;3.72;;;1.88;;
10260;SDS011;5175;42.606;23.388;2022-10-17T14:01:00;5.75;;;2.00;;
10260;SDS011;5175;42.606;23.388;2022-10-17T14:03:27;4.68;;;2.30;;
10260;SDS011;5175;42.606;23.388;2022-10-17T14:06:10;3.05;;;2.00;;
10260;SDS011;5175;42.606;23.388;2022-10-17T14:08:48;3.05;;;2.10;;
10260;SDS011;5175;42.606;23.388;2022-10-17T14:11:29;2.00;;;1.88;;
10260;SDS011;5175;42.606;23.388;2022-10-17T14:13:59;3.40;;;1.90;;
10260;SDS011;5175;42.606;23.388;2022-10-17T14:16:34;2.88;;;1.90;;
10260;SDS011;5175;42.606;23.388;2022-10-17T14:19:03;4.38;;;2.22;;
10260;SDS011;5175;42.606;23.388;2022-10-17T14:21:31;5.30;;;2.00;;
10260;SDS011;5175;42.606;23.388;2022-10-17T14:24:12;3.60;;;2.25;;
10260;SDS011;5175;42.606;23.388;2022-10-17T14:26:47;2.47;;;2.25;;
10260;SDS011;5175;42.606;23.388;2022-10-17T14:29:19;7.28;;;4.20;;
10260;SDS011;5175;42.606;23.388;2022-10-17T14:31:49;6.68;;;5.28;;
10260;SDS011;5175;42.606;23.388;2022-10-17T14:34:25;6.68;;;4.63;;
10260;SDS011;5175;42.606;23.388;2022-10-17T14:36:55;5.80;;;4.18;;
10260;SDS011;5175;42.606;23.388;2022-10-17T14:39:23;5.03;;;4.25;;
10260;SDS011;5175;42.606;23.388;2022-10-17T14:41:51;5.85;;;4.03;;
10260;SDS011;5175;42.606;23.388;2022-10-17T14:44:20;4.40;;;4.00;;
10260;SDS011;5175;42.606;23.388;2022-10-17T14:46:52;7.13;;;3.47;;
10260;SDS011;5175;42.606;23.388;2022-10-17T14:49:23;4.63;;;3.25;;
10260;SDS011;5175;42.606;23.388;2022-10-17T14:54:53;7.68;;;4.03;;
10260;SDS011;5175;42.606;23.388;2022-10-17T14:57:22;6.47;;;3.97;;
10260;SDS011;5175;42.606;23.388;2022-10-17T14:59:50;5.90;;;3.80;;
10260;SDS011;5175;42.606;23.388;2022-10-17T15:02:19;8.98;;;4.10;;
10260;SDS011;5175;42.606;23.388;2022-10-17T15:04:46;8.38;;;4.28;;
10260;SDS011;5175;42.606;23.388;2022-10-17T15:07:13;17.08;;;5.70;;
10260;SDS011;5175;42.606;23.388;2022-10-17T15:09:41;11.40;;;4.47;;
10260;SDS011;5175;42.606;23.388;2022-10-17T15:12:11;16.67;;;5.38;;
10260;SDS011;5175;42.606;23.388;2022-10-17T15:14:40;18.48;;;8.73;;
10260;SDS011;5175;42.606;23.388;2022-10-17T15:17:09;19.70;;;9.43;;
10260;SDS011;5175;42.606;23.388;2022-10-17T15:19:39;19.73;;;10.18;;
10260;SDS011;5175;42.606;23.388;2022-10-17T15:22:06;21.75;;;11.73;;
10260;SDS011;5175;42.606;23.388;2022-10-17T15:24:33;24.10;;;14.02;;
10260;SDS011;5175;42.606;23.388;2022-10-17T15:27:00;38.35;;;18.35;;
10260;SDS011;5175;42.606;23.388;2022-10-17T15:29:26;41.47;;;18.27;;
10260;SDS011;5175;42.606;23.388;2022-10-17T15:31:53;21.38;;;10.68;;